sensor_id;sensor_type;location;lat;lon;timestamp;P1;durP1;ratioP1;P2;durP2;ratioP2
12151;SDS011;6139;51.274;7.128;2023-10-19T00:00:48;6.80;;;6.10;;
12151;SDS011;6139;51.274;7.128;2023-10-19T00:01:50;6.43;;;5.82;;
12151;SDS011;6139;51.274;7.128;2023-10-19T00:02:52;7.25;;;6.47;;
12151;SDS011;6139;51.274;7.128;2023-10-19T00:03:55;6.75;;;6.15;;
12151;SDS011;6139;51.274;7.128;2023-10-19T00:04:56;6.50;;;5.90;;
12151;SDS011;6139;51.274;7.128;2023-10-19T00:05:57;7.70;;;7.00;;
12151;SDS011;6139;51.274;7.128;2023-10-19T00:07:00;7.20;;;6.50;;
12151;SDS011;6139;51.274;7.128;2023-10-19T00:08:01;7.13;;;6.43;;
12151;SDS011;6139;51.274;7.128;2023-10-19T00:09:06;7.22;;;6.25;;
12151;SDS011;6139;51.274;7.128;2023-10-19T00:10:11;7.22;;;6.53;;
12151;SDS011;6139;51.274;7.128;2023-10-19T00:11:16;7.07;;;6.38;;
12151;SDS011;6139;51.274;7.128;2023-10-19T00:12:22;6.95;;;6.25;;
12151;SDS011;6139;51.274;7.128;2023-10-19T00:13:24;7.38;;;6.65;;
12151;SDS011;6139;51.274;7.128;2023-10-19T00:14:26;7.18;;;6.47;;
12151;SDS011;6139;51.274;7.128;2023-10-19T00:15:27;7.78;;;6.97;;
12151;SDS011;6139;51.274;7.128;2023-10-19T00:16:32;7.22;;;6.50;;
12151;SDS011;6139;51.274;7.128;2023-10-19T00:17:36;7.82;;;6.78;;
12151;SDS011;6139;51.274;7.128;2023-10-19T00:18:39;6.70;;;6.07;;
12151;SDS011;6139;51.274;7.128;2023-10-19T00:19:43;8.48;;;7.22;;
12151;SDS011;6139;51.274;7.128;2023-10-19T00:20:58;7.05;;;6.35;;
12151;SDS011;6139;51.274;7.128;2023-10-19T00:22:04;7.93;;;7.05;;
12151;SDS011;6139;51.274;7.128;2023-10-19T00:23:08;8.15;;;6.90;;
12151;SDS011;6139;51.274;7.128;2023-10-19T00:24:13;7.85;;;7.05;;
12151;SDS011;6139;51.274;7.128;2023-10-19T00:25:17;7.80;;;7.00;;
12151;SDS011;6139;51.274;7.128;2023-10-19T00:26:18;8.07;;;7.28;;
12151;SDS011;6139;51.274;7.128;2023-10-19T00:27:33;7.38;;;6.70;;
12151;SDS011;6139;51.274;7.128;2023-10-19T00:28:35;6.82;;;6.18;;
12151;SDS011;6139;51.274;7.128;2023-10-19T00:29:38;7.25;;;6.55;;
12151;SDS011;6139;51.274;7.128;2023-10-19T00:30:41;7.40;;;6.75;;
12151;SDS011;6139;51.274;7.128;2023-10-19T00:31:43;7.40;;;6.70;;
12151;SDS011;6139;51.274;7.128;2023-10-19T00:32:45;7.60;;;6.88;;
12151;SDS011;6139;51.274;7.128;2023-10-19T00:33:48;7.85;;;7.05;;
12151;SDS011;6139;51.274;7.128;2023-10-19T00:34:52;7.10;;;6.47;;
12151;SDS011;6139;51.274;7.128;2023-10-19T00:35:54;7.90;;;7.10;;
12151;SDS011;6139;51.274;7.128;2023-10-19T00:37:00;7.28;;;6.57;;
12151;SDS011;6139;51.274;7.128;2023-10-19T00:38:08;7.45;;;6.70;;
12151;SDS011;6139;51.274;7.128;2023-10-19T00:39:27;6.93;;;6.22;;
12151;SDS011;6139;51.274;7.128;2023-10-19T00:40:40;7.18;;;6.55;;
12151;SDS011;6139;51.274;7.128;2023-10-19T00:41:46;7.65;;;6.95;;
12151;SDS011;6139;51.274;7.128;2023-10-19T00:42:48;7.15;;;6.45;;
12151;SDS011;6139;51.274;7.128;2023-10-19T00:43:55;7.85;;;7.05;;
12151;SDS011;6139;51.274;7.128;2023-10-19T00:45:05;7.38;;;6.68;;
12151;SDS011;6139;51.274;7.128;2023-10-19T00:46:08;7.30;;;6.60;;
12151;SDS011;6139;51.274;7.128;2023-10-19T00:47:14;7.88;;;7.07;;
12151;SDS011;6139;51.274;7.128;2023-10-19T00:48:19;7.65;;;6.95;;
12151;SDS011;6139;51.274;7.128;2023-10-19T00:49:26;7.15;;;6.45;;
12151;SDS011;6139;51.274;7.128;2023-10-19T00:50:29;7.85;;;7.13;;
12151;SDS011;6139;51.274;7.128;2023-10-19T00:51:33;7.55;;;6.75;;
12151;SDS011;6139;51.274;7.128;2023-10-19T00:52:51;8.68;;;7.28;;
12151;SDS011;6139;51.274;7.128;2023-10-19T00:53:54;8.25;;;7.45;;
12151;SDS011;6139;51.274;7.128;2023-10-19T00:54:57;8.20;;;7.40;;
12151;SDS011;6139;51.274;7.128;2023-10-19T00:55:59;8.07;;;7.28;;
12151;SDS011;6139;51.274;7.128;2023-10-19T00:57:01;9.38;;;8.15;;
12151;SDS011;6139;51.274;7.128;2023-10-19T00:58:08;8.20;;;7.30;;
12151;SDS011;6139;51.274;7.128;2023-10-19T00:59:10;8.80;;;7.88;;
12151;SDS011;6139;51.274;7.128;2023-10-19T01:00:16;8.40;;;7.70;;
12151;SDS011;6139;51.274;7.128;2023-10-19T01:01:30;9.23;;;7.97;;
12151;SDS011;6139;51.274;7.128;2023-10-19T01:02:33;8.85;;;7.95;;
12151;SDS011;6139;51.274;7.128;2023-10-19T01:03:43;8.55;;;7.75;;
12151;SDS011;6139;51.274;7.128;2023-10-19T01:04:45;9.43;;;8.43;;
12151;SDS011;6139;51.274;7.128;2023-10-19T01:05:51;7.90;;;7.10;;
12151;SDS011;6139;51.274;7.128;2023-10-19T01:06:54;8.90;;;8.00;;
12151;SDS011;6139;51.274;7.128;2023-10-19T01:08:01;8.68;;;7.85;;
12151;SDS011;6139;51.274;7.128;2023-10-19T01:09:08;8.90;;;8.00;;
12151;SDS011;6139;51.274;7.128;2023-10-19T01:10:12;9.80;;;8.80;;
12151;SDS011;6139;51.274;7.128;2023-10-19T01:11:20;8.75;;;7.88;;
12151;SDS011;6139;51.274;7.128;2023-10-19T01:12:22;9.18;;;8.25;;
12151;SDS011;6139;51.274;7.128;2023-10-19T01:13:30;10.13;;;9.13;;
12151;SDS011;6139;51.274;7.128;2023-10-19T01:14:35;9.80;;;8.48;;
12151;SDS011;6139;51.274;7.128;2023-10-19T01:15:38;11.32;;;8.48;;
12151;SDS011;6139;51.274;7.128;2023-10-19T01:16:41;10.68;;;9.45;;
12151;SDS011;6139;51.274;7.128;2023-10-19T01:17:43;10.35;;;9.35;;
12151;SDS011;6139;51.274;7.128;2023-10-19T01:18:47;10.25;;;9.07;;
12151;SDS011;6139;51.274;7.128;2023-10-19T01:19:48;9.38;;;8.48;;
12151;SDS011;6139;51.274;7.128;2023-10-19T01:20:53;11.13;;;9.13;;
12151;SDS011;6139;51.274;7.128;2023-10-19T01:21:55;9.73;;;8.73;;
12151;SDS011;6139;51.274;7.128;2023-10-19T01:23:06;10.02;;;9.02;;
12151;SDS011;6139;51.274;7.128;2023-10-19T01:24:20;9.80;;;8.80;;
12151;SDS011;6139;51.274;7.128;2023-10-19T01:25:41;9.30;;;8.38;;
12151;SDS011;6139;51.274;7.128;2023-10-19T01:26:50;9.20;;;8.30;;
12151;SDS011;6139;51.274;7.128;2023-10-19T01:27:54;9.60;;;8.60;;
12151;SDS011;6139;51.274;7.128;2023-10-19T01:28:58;10.27;;;8.38;;
12151;SDS011;6139;51.274;7.128;2023-10-19T01:30:01;10.30;;;9.18;;
12151;SDS011;6139;51.274;7.128;2023-10-19T01:31:04;9.90;;;8.80;;
12151;SDS011;6139;51.274;7.128;2023-10-19T01:32:06;12.43;;;10.38;;
12151;SDS011;6139;51.274;7.128;2023-10-19T01:33:09;11.20;;;9.70;;
12151;SDS011;6139;51.274;7.128;2023-10-19T01:34:13;10.63;;;9.52;;
12151;SDS011;6139;51.274;7.128;2023-10-19T01:35:15;10.90;;;9.77;;
12151;SDS011;6139;51.274;7.128;2023-10-19T01:36:16;10.57;;;9.45;;
12151;SDS011;6139;51.274;7.128;2023-10-19T01:37:25;10.80;;;9.70;;
12151;SDS011;6139;51.274;7.128;2023-10-19T01:38:29;9.95;;;8.95;;
12151;SDS011;6139;51.274;7.128;2023-10-19T01:39:31;10.00;;;8.80;;
12151;SDS011;6139;51.274;7.128;2023-10-19T01:40:35;10.30;;;9.07;;
12151;SDS011;6139;51.274;7.128;2023-10-19T01:41:46;9.93;;;8.93;;
12151;SDS011;6139;51.274;7.128;2023-10-19T01:42:51;9.70;;;8.80;;
12151;SDS011;6139;51.274;7.128;2023-10-19T01:43:52;9.77;;;8.77;;
12151;SDS011;6139;51.274;7.128;2023-10-19T01:44:54;11.07;;;8.75;;
12151;SDS011;6139;51.274;7.128;2023-10-19T01:45:56;9.25;;;8.27;;
12151;SDS011;6139;51.274;7.128;2023-10-19T01:46:57;10.13;;;9.02;;
12151;SDS011;6139;51.274;7.128;2023-10-19T01:48:01;10.02;;;8.88;;
12151;SDS011;6139;51.274;7.128;2023-10-19T01:49:03;9.63;;;8.63;;
12151;SDS011;6139;51.274;7.128;2023-10-19T01:50:06;12.40;;;9.77;;
12151;SDS011;6139;51.274;7.128;2023-10-19T01:51:20;10.43;;;9.02;;
12151;SDS011;6139;51.274;7.128;2023-10-19T01:52:24;9.75;;;8.75;;
12151;SDS011;6139;51.274;7.128;2023-10-19T01:53:25;9.20;;;8.30;;
12151;SDS011;6139;51.274;7.128;2023-10-19T01:54:28;9.77;;;8.73;;
12151;SDS011;6139;51.274;7.128;2023-10-19T01:55:29;9.00;;;8.10;;
12151;SDS011;6139;51.274;7.128;2023-10-19T01:56:38;9.45;;;8.40;;
12151;SDS011;6139;51.274;7.128;2023-10-19T01:57:42;10.60;;;8.52;;
12151;SDS011;6139;51.274;7.128;2023-10-19T01:58:46;9.10;;;8.10;;
12151;SDS011;6139;51.274;7.128;2023-10-19T01:59:47;9.63;;;8.32;;
12151;SDS011;6139;51.274;7.128;2023-10-19T02:00:49;9.15;;;8.00;;
12151;SDS011;6139;51.274;7.128;2023-10-19T02:01:51;8.40;;;7.60;;
12151;SDS011;6139;51.274;7.128;2023-10-19T02:02:52;8.40;;;7.60;;
12151;SDS011;6139;51.274;7.128;2023-10-19T02:03:55;9.15;;;7.93;;
12151;SDS011;6139;51.274;7.128;2023-10-19T02:04:58;8.80;;;7.90;;
12151;SDS011;6139;51.274;7.128;2023-10-19T02:06:00;8.70;;;7.80;;
12151;SDS011;6139;51.274;7.128;2023-10-19T02:07:10;9.43;;;8.20;;
12151;SDS011;6139;51.274;7.128;2023-10-19T02:08:18;9.85;;;8.43;;
12151;SDS011;6139;51.274;7.128;2023-10-19T02:09:25;8.25;;;7.38;;
12151;SDS011;6139;51.274;7.128;2023-10-19T02:10:29;8.70;;;7.63;;
12151;SDS011;6139;51.274;7.128;2023-10-19T02:11:32;8.32;;;7.43;;
12151;SDS011;6139;51.274;7.128;2023-10-19T02:12:38;8.10;;;7.13;;
12151;SDS011;6139;51.274;7.128;2023-10-19T02:13:42;8.82;;;7.45;;
12151;SDS011;6139;51.274;7.128;2023-10-19T02:14:45;11.50;;;7.13;;
12151;SDS011;6139;51.274;7.128;2023-10-19T02:15:47;6.68;;;6.07;;
12151;SDS011;6139;51.274;7.128;2023-10-19T02:16:51;7.22;;;6.53;;
12151;SDS011;6139;51.274;7.128;2023-10-19T02:17:53;7.28;;;6.40;;
12151;SDS011;6139;51.274;7.128;2023-10-19T02:19:00;7.45;;;6.53;;
12151;SDS011;6139;51.274;7.128;2023-10-19T02:20:01;6.65;;;5.80;;
12151;SDS011;6139;51.274;7.128;2023-10-19T02:21:18;8.48;;;6.50;;
12151;SDS011;6139;51.274;7.128;2023-10-19T02:22:22;6.60;;;6.00;;
12151;SDS011;6139;51.274;7.128;2023-10-19T02:23:25;6.68;;;5.97;;
12151;SDS011;6139;51.274;7.128;2023-10-19T02:24:27;7.00;;;6.10;;
12151;SDS011;6139;51.274;7.128;2023-10-19T02:25:29;6.35;;;5.75;;
12151;SDS011;6139;51.274;7.128;2023-10-19T02:26:35;6.22;;;5.30;;
12151;SDS011;6139;51.274;7.128;2023-10-19T02:27:37;5.50;;;5.00;;
12151;SDS011;6139;51.274;7.128;2023-10-19T02:28:39;5.82;;;5.20;;
12151;SDS011;6139;51.274;7.128;2023-10-19T02:29:44;5.68;;;5.18;;
12151;SDS011;6139;51.274;7.128;2023-10-19T02:30:47;5.43;;;4.93;;
12151;SDS011;6139;51.274;7.128;2023-10-19T02:31:48;5.35;;;4.70;;
12151;SDS011;6139;51.274;7.128;2023-10-19T02:32:51;5.90;;;5.30;;
12151;SDS011;6139;51.274;7.128;2023-10-19T02:33:54;6.03;;;5.28;;
12151;SDS011;6139;51.274;7.128;2023-10-19T02:34:59;7.57;;;5.38;;
12151;SDS011;6139;51.274;7.128;2023-10-19T02:36:03;5.88;;;4.63;;
12151;SDS011;6139;51.274;7.128;2023-10-19T02:37:05;6.85;;;5.45;;
12151;SDS011;6139;51.274;7.128;2023-10-19T02:38:06;6.72;;;4.68;;
12151;SDS011;6139;51.274;7.128;2023-10-19T02:39:08;6.70;;;5.20;;
12151;SDS011;6139;51.274;7.128;2023-10-19T02:40:13;5.90;;;5.22;;
12151;SDS011;6139;51.274;7.128;2023-10-19T02:41:19;4.93;;;4.43;;
12151;SDS011;6139;51.274;7.128;2023-10-19T02:42:22;5.28;;;4.80;;
12151;SDS011;6139;51.274;7.128;2023-10-19T02:43:24;6.07;;;4.88;;
12151;SDS011;6139;51.274;7.128;2023-10-19T02:44:26;6.18;;;5.57;;
12151;SDS011;6139;51.274;7.128;2023-10-19T02:45:28;7.07;;;5.13;;
12151;SDS011;6139;51.274;7.128;2023-10-19T02:46:31;6.15;;;4.68;;
12151;SDS011;6139;51.274;7.128;2023-10-19T02:47:32;5.57;;;4.85;;
12151;SDS011;6139;51.274;7.128;2023-10-19T02:48:33;5.45;;;4.95;;
12151;SDS011;6139;51.274;7.128;2023-10-19T02:49:35;4.70;;;4.30;;
12151;SDS011;6139;51.274;7.128;2023-10-19T02:50:39;8.00;;;5.65;;
12151;SDS011;6139;51.274;7.128;2023-10-19T02:51:42;6.53;;;5.10;;
12151;SDS011;6139;51.274;7.128;2023-10-19T02:52:45;5.85;;;4.72;;
12151;SDS011;6139;51.274;7.128;2023-10-19T02:53:47;5.75;;;5.15;;
12151;SDS011;6139;51.274;7.128;2023-10-19T02:54:48;5.50;;;5.00;;
12151;SDS011;6139;51.274;7.128;2023-10-19T02:55:50;5.38;;;4.88;;
12151;SDS011;6139;51.274;7.128;2023-10-19T02:56:53;6.07;;;5.47;;
12151;SDS011;6139;51.274;7.128;2023-10-19T02:57:58;5.55;;;4.88;;
12151;SDS011;6139;51.274;7.128;2023-10-19T02:59:00;5.82;;;5.32;;
12151;SDS011;6139;51.274;7.128;2023-10-19T03:00:05;6.38;;;5.20;;
12151;SDS011;6139;51.274;7.128;2023-10-19T03:01:13;6.13;;;5.50;;
12151;SDS011;6139;51.274;7.128;2023-10-19T03:02:17;6.25;;;5.65;;
12151;SDS011;6139;51.274;7.128;2023-10-19T03:03:19;6.35;;;5.75;;
12151;SDS011;6139;51.274;7.128;2023-10-19T03:04:20;6.20;;;5.60;;
12151;SDS011;6139;51.274;7.128;2023-10-19T03:05:22;6.43;;;5.82;;
12151;SDS011;6139;51.274;7.128;2023-10-19T03:06:26;7.10;;;6.03;;
12151;SDS011;6139;51.274;7.128;2023-10-19T03:07:31;6.10;;;5.50;;
12151;SDS011;6139;51.274;7.128;2023-10-19T03:08:33;6.70;;;5.93;;
12151;SDS011;6139;51.274;7.128;2023-10-19T03:09:36;6.32;;;5.72;;
12151;SDS011;6139;51.274;7.128;2023-10-19T03:10:38;7.05;;;5.90;;
12151;SDS011;6139;51.274;7.128;2023-10-19T03:11:43;6.97;;;5.20;;
12151;SDS011;6139;51.274;7.128;2023-10-19T03:12:45;5.45;;;4.95;;
12151;SDS011;6139;51.274;7.128;2023-10-19T03:13:47;6.40;;;5.35;;
12151;SDS011;6139;51.274;7.128;2023-10-19T03:14:50;6.75;;;5.55;;
12151;SDS011;6139;51.274;7.128;2023-10-19T03:15:52;5.57;;;4.95;;
12151;SDS011;6139;51.274;7.128;2023-10-19T03:16:54;7.07;;;5.85;;
12151;SDS011;6139;51.274;7.128;2023-10-19T03:17:55;5.68;;;5.00;;
12151;SDS011;6139;51.274;7.128;2023-10-19T03:18:57;6.65;;;5.50;;
12151;SDS011;6139;51.274;7.128;2023-10-19T03:19:59;6.80;;;5.78;;
12151;SDS011;6139;51.274;7.128;2023-10-19T03:21:00;5.70;;;5.10;;
12151;SDS011;6139;51.274;7.128;2023-10-19T03:22:01;6.35;;;4.80;;
12151;SDS011;6139;51.274;7.128;2023-10-19T03:23:06;5.68;;;5.18;;
12151;SDS011;6139;51.274;7.128;2023-10-19T03:24:11;5.43;;;4.40;;
12151;SDS011;6139;51.274;7.128;2023-10-19T03:25:14;5.20;;;4.70;;
12151;SDS011;6139;51.274;7.128;2023-10-19T03:26:30;5.10;;;4.60;;
12151;SDS011;6139;51.274;7.128;2023-10-19T03:27:32;6.47;;;4.60;;
12151;SDS011;6139;51.274;7.128;2023-10-19T03:28:34;6.10;;;4.53;;
12151;SDS011;6139;51.274;7.128;2023-10-19T03:29:36;6.90;;;4.88;;
12151;SDS011;6139;51.274;7.128;2023-10-19T03:30:39;5.60;;;4.28;;
12151;SDS011;6139;51.274;7.128;2023-10-19T03:31:41;5.40;;;4.80;;
12151;SDS011;6139;51.274;7.128;2023-10-19T03:32:43;4.88;;;4.32;;
12151;SDS011;6139;51.274;7.128;2023-10-19T03:33:46;5.43;;;4.60;;
12151;SDS011;6139;51.274;7.128;2023-10-19T03:34:50;4.90;;;4.40;;
12151;SDS011;6139;51.274;7.128;2023-10-19T03:35:55;4.63;;;4.10;;
12151;SDS011;6139;51.274;7.128;2023-10-19T03:36:56;4.13;;;3.67;;
12151;SDS011;6139;51.274;7.128;2023-10-19T03:38:02;4.43;;;3.70;;
12151;SDS011;6139;51.274;7.128;2023-10-19T03:39:09;6.05;;;3.90;;
12151;SDS011;6139;51.274;7.128;2023-10-19T03:40:17;4.07;;;3.58;;
12151;SDS011;6139;51.274;7.128;2023-10-19T03:41:27;4.25;;;3.85;;
12151;SDS011;6139;51.274;7.128;2023-10-19T03:42:32;4.72;;;3.90;;
12151;SDS011;6139;51.274;7.128;2023-10-19T03:43:40;3.83;;;3.53;;
12151;SDS011;6139;51.274;7.128;2023-10-19T03:44:43;3.80;;;3.38;;
12151;SDS011;6139;51.274;7.128;2023-10-19T03:45:53;3.67;;;3.25;;
12151;SDS011;6139;51.274;7.128;2023-10-19T03:46:55;3.42;;;3.13;;
12151;SDS011;6139;51.274;7.128;2023-10-19T03:48:01;3.30;;;3.00;;
12151;SDS011;6139;51.274;7.128;2023-10-19T03:49:08;3.40;;;2.92;;
12151;SDS011;6139;51.274;7.128;2023-10-19T03:50:11;3.75;;;3.30;;
12151;SDS011;6139;51.274;7.128;2023-10-19T03:51:20;4.32;;;3.42;;
12151;SDS011;6139;51.274;7.128;2023-10-19T03:52:25;4.22;;;3.10;;
12151;SDS011;6139;51.274;7.128;2023-10-19T03:53:30;3.65;;;3.30;;
12151;SDS011;6139;51.274;7.128;2023-10-19T03:54:33;3.42;;;3.05;;
12151;SDS011;6139;51.274;7.128;2023-10-19T03:55:39;3.80;;;3.03;;
12151;SDS011;6139;51.274;7.128;2023-10-19T03:56:43;3.80;;;2.97;;
12151;SDS011;6139;51.274;7.128;2023-10-19T03:57:47;4.03;;;2.85;;
12151;SDS011;6139;51.274;7.128;2023-10-19T03:58:50;3.47;;;2.88;;
12151;SDS011;6139;51.274;7.128;2023-10-19T03:59:53;3.08;;;2.75;;
12151;SDS011;6139;51.274;7.128;2023-10-19T04:00:56;3.60;;;2.60;;
12151;SDS011;6139;51.274;7.128;2023-10-19T04:02:05;3.80;;;2.80;;
12151;SDS011;6139;51.274;7.128;2023-10-19T04:03:09;4.20;;;3.08;;
12151;SDS011;6139;51.274;7.128;2023-10-19T04:04:12;3.15;;;2.83;;
12151;SDS011;6139;51.274;7.128;2023-10-19T04:05:14;3.67;;;2.90;;
12151;SDS011;6139;51.274;7.128;2023-10-19T04:06:15;4.85;;;3.15;;
12151;SDS011;6139;51.274;7.128;2023-10-19T04:07:17;5.90;;;3.13;;
12151;SDS011;6139;51.274;7.128;2023-10-19T04:08:21;3.00;;;2.60;;
12151;SDS011;6139;51.274;7.128;2023-10-19T04:09:26;3.90;;;2.85;;
12151;SDS011;6139;51.274;7.128;2023-10-19T04:10:29;3.47;;;2.50;;
12151;SDS011;6139;51.274;7.128;2023-10-19T04:11:31;4.55;;;2.65;;
12151;SDS011;6139;51.274;7.128;2023-10-19T04:12:46;5.75;;;2.70;;
12151;SDS011;6139;51.274;7.128;2023-10-19T04:13:49;3.28;;;2.75;;
12151;SDS011;6139;51.274;7.128;2023-10-19T04:14:54;3.72;;;2.65;;
12151;SDS011;6139;51.274;7.128;2023-10-19T04:15:56;2.78;;;2.40;;
12151;SDS011;6139;51.274;7.128;2023-10-19T04:16:58;4.38;;;2.65;;
12151;SDS011;6139;51.274;7.128;2023-10-19T04:17:59;2.92;;;2.63;;
12151;SDS011;6139;51.274;7.128;2023-10-19T04:19:01;3.50;;;2.47;;
12151;SDS011;6139;51.274;7.128;2023-10-19T04:20:05;3.42;;;2.90;;
12151;SDS011;6139;51.274;7.128;2023-10-19T04:21:26;3.83;;;2.70;;
12151;SDS011;6139;51.274;7.128;2023-10-19T04:22:28;3.13;;;2.72;;
12151;SDS011;6139;51.274;7.128;2023-10-19T04:23:31;2.83;;;2.35;;
12151;SDS011;6139;51.274;7.128;2023-10-19T04:24:35;2.88;;;2.58;;
12151;SDS011;6139;51.274;7.128;2023-10-19T04:25:37;3.33;;;2.60;;
12151;SDS011;6139;51.274;7.128;2023-10-19T04:26:38;2.70;;;2.50;;
12151;SDS011;6139;51.274;7.128;2023-10-19T04:27:41;2.80;;;2.60;;
12151;SDS011;6139;51.274;7.128;2023-10-19T04:28:44;3.47;;;2.63;;
12151;SDS011;6139;51.274;7.128;2023-10-19T04:29:49;3.15;;;2.85;;
12151;SDS011;6139;51.274;7.128;2023-10-19T04:30:51;5.97;;;2.70;;
12151;SDS011;6139;51.274;7.128;2023-10-19T04:31:52;3.10;;;2.50;;
12151;SDS011;6139;51.274;7.128;2023-10-19T04:32:57;5.93;;;2.83;;
12151;SDS011;6139;51.274;7.128;2023-10-19T04:34:01;4.32;;;2.58;;
12151;SDS011;6139;51.274;7.128;2023-10-19T04:35:07;3.90;;;2.60;;
12151;SDS011;6139;51.274;7.128;2023-10-19T04:36:09;2.65;;;2.45;;
12151;SDS011;6139;51.274;7.128;2023-10-19T04:37:11;4.35;;;2.60;;
12151;SDS011;6139;51.274;7.128;2023-10-19T04:38:18;3.58;;;2.50;;
12151;SDS011;6139;51.274;7.128;2023-10-19T04:39:20;2.97;;;2.40;;
12151;SDS011;6139;51.274;7.128;2023-10-19T04:40:22;3.72;;;2.60;;
12151;SDS011;6139;51.274;7.128;2023-10-19T04:41:24;3.50;;;2.53;;
12151;SDS011;6139;51.274;7.128;2023-10-19T04:42:27;2.38;;;2.08;;
12151;SDS011;6139;51.274;7.128;2023-10-19T04:43:30;2.35;;;2.10;;
12151;SDS011;6139;51.274;7.128;2023-10-19T04:44:32;3.92;;;2.60;;
12151;SDS011;6139;51.274;7.128;2023-10-19T04:45:35;2.25;;;2.05;;
12151;SDS011;6139;51.274;7.128;2023-10-19T04:46:40;4.45;;;2.28;;
12151;SDS011;6139;51.274;7.128;2023-10-19T04:47:42;2.22;;;2.00;;
12151;SDS011;6139;51.274;7.128;2023-10-19T04:48:44;3.22;;;2.42;;
12151;SDS011;6139;51.274;7.128;2023-10-19T04:49:47;3.65;;;2.28;;
12151;SDS011;6139;51.274;7.128;2023-10-19T04:50:49;3.53;;;2.30;;
12151;SDS011;6139;51.274;7.128;2023-10-19T04:51:51;4.88;;;2.33;;
12151;SDS011;6139;51.274;7.128;2023-10-19T04:52:52;4.63;;;2.20;;
12151;SDS011;6139;51.274;7.128;2023-10-19T04:53:54;2.75;;;2.30;;
12151;SDS011;6139;51.274;7.128;2023-10-19T04:54:55;2.30;;;2.10;;
12151;SDS011;6139;51.274;7.128;2023-10-19T04:55:59;4.65;;;2.53;;
12151;SDS011;6139;51.274;7.128;2023-10-19T04:57:00;4.75;;;2.15;;
12151;SDS011;6139;51.274;7.128;2023-10-19T04:58:03;4.22;;;2.50;;
12151;SDS011;6139;51.274;7.128;2023-10-19T04:59:06;4.70;;;2.20;;
12151;SDS011;6139;51.274;7.128;2023-10-19T05:00:10;3.95;;;2.13;;
12151;SDS011;6139;51.274;7.128;2023-10-19T05:01:13;3.30;;;2.65;;
12151;SDS011;6139;51.274;7.128;2023-10-19T05:02:16;2.42;;;2.22;;
12151;SDS011;6139;51.274;7.128;2023-10-19T05:03:17;3.55;;;2.65;;
12151;SDS011;6139;51.274;7.128;2023-10-19T05:04:20;3.10;;;2.60;;
12151;SDS011;6139;51.274;7.128;2023-10-19T05:05:21;3.08;;;2.40;;
12151;SDS011;6139;51.274;7.128;2023-10-19T05:06:23;4.53;;;3.00;;
12151;SDS011;6139;51.274;7.128;2023-10-19T05:07:24;3.65;;;2.65;;
12151;SDS011;6139;51.274;7.128;2023-10-19T05:08:27;4.15;;;2.80;;
12151;SDS011;6139;51.274;7.128;2023-10-19T05:09:28;3.35;;;2.78;;
12151;SDS011;6139;51.274;7.128;2023-10-19T05:10:30;5.25;;;2.70;;
12151;SDS011;6139;51.274;7.128;2023-10-19T05:11:31;3.67;;;2.75;;
12151;SDS011;6139;51.274;7.128;2023-10-19T05:12:33;3.13;;;2.50;;
12151;SDS011;6139;51.274;7.128;2023-10-19T05:13:35;4.03;;;2.60;;
12151;SDS011;6139;51.274;7.128;2023-10-19T05:14:37;6.10;;;2.70;;
12151;SDS011;6139;51.274;7.128;2023-10-19T05:15:40;4.70;;;2.75;;
12151;SDS011;6139;51.274;7.128;2023-10-19T05:16:43;5.18;;;2.40;;
12151;SDS011;6139;51.274;7.128;2023-10-19T05:17:44;3.58;;;2.40;;
12151;SDS011;6139;51.274;7.128;2023-10-19T05:18:46;4.03;;;2.65;;
12151;SDS011;6139;51.274;7.128;2023-10-19T05:19:48;3.50;;;2.50;;
12151;SDS011;6139;51.274;7.128;2023-10-19T05:20:49;3.92;;;2.35;;
12151;SDS011;6139;51.274;7.128;2023-10-19T05:21:55;4.13;;;2.78;;
12151;SDS011;6139;51.274;7.128;2023-10-19T05:22:56;5.10;;;2.50;;
12151;SDS011;6139;51.274;7.128;2023-10-19T05:24:00;3.67;;;2.60;;
12151;SDS011;6139;51.274;7.128;2023-10-19T05:25:01;4.05;;;2.47;;
12151;SDS011;6139;51.274;7.128;2023-10-19T05:26:05;3.92;;;2.50;;
12151;SDS011;6139;51.274;7.128;2023-10-19T05:27:07;3.53;;;2.60;;
12151;SDS011;6139;51.274;7.128;2023-10-19T05:28:09;4.65;;;2.70;;
12151;SDS011;6139;51.274;7.128;2023-10-19T05:29:10;5.10;;;2.88;;
12151;SDS011;6139;51.274;7.128;2023-10-19T05:30:13;4.75;;;2.80;;
12151;SDS011;6139;51.274;7.128;2023-10-19T05:31:16;3.72;;;2.97;;
12151;SDS011;6139;51.274;7.128;2023-10-19T05:32:18;3.75;;;2.65;;
12151;SDS011;6139;51.274;7.128;2023-10-19T05:33:19;3.33;;;2.60;;
12151;SDS011;6139;51.274;7.128;2023-10-19T05:34:23;4.68;;;3.10;;
12151;SDS011;6139;51.274;7.128;2023-10-19T05:35:27;3.33;;;2.50;;
12151;SDS011;6139;51.274;7.128;2023-10-19T05:36:35;5.63;;;3.10;;
12151;SDS011;6139;51.274;7.128;2023-10-19T05:37:36;5.15;;;2.95;;
12151;SDS011;6139;51.274;7.128;2023-10-19T05:38:38;3.88;;;2.97;;
12151;SDS011;6139;51.274;7.128;2023-10-19T05:39:39;5.05;;;3.08;;
12151;SDS011;6139;51.274;7.128;2023-10-19T05:40:42;4.25;;;3.20;;
12151;SDS011;6139;51.274;7.128;2023-10-19T05:41:43;8.80;;;3.58;;
12151;SDS011;6139;51.274;7.128;2023-10-19T05:42:45;6.20;;;3.28;;
12151;SDS011;6139;51.274;7.128;2023-10-19T05:43:46;4.45;;;3.40;;
12151;SDS011;6139;51.274;7.128;2023-10-19T05:44:49;4.32;;;3.00;;
12151;SDS011;6139;51.274;7.128;2023-10-19T05:45:52;5.38;;;3.40;;
12151;SDS011;6139;51.274;7.128;2023-10-19T05:46:55;3.20;;;2.90;;
12151;SDS011;6139;51.274;7.128;2023-10-19T05:47:56;3.85;;;3.42;;
12151;SDS011;6139;51.274;7.128;2023-10-19T05:49:00;4.93;;;3.20;;
12151;SDS011;6139;51.274;7.128;2023-10-19T05:50:04;4.88;;;3.15;;
12151;SDS011;6139;51.274;7.128;2023-10-19T05:51:05;5.47;;;2.95;;
12151;SDS011;6139;51.274;7.128;2023-10-19T05:52:07;3.88;;;2.97;;
12151;SDS011;6139;51.274;7.128;2023-10-19T05:53:08;3.95;;;3.53;;
12151;SDS011;6139;51.274;7.128;2023-10-19T05:54:10;4.10;;;3.33;;
12151;SDS011;6139;51.274;7.128;2023-10-19T05:55:12;4.63;;;3.70;;
12151;SDS011;6139;51.274;7.128;2023-10-19T05:56:13;4.63;;;3.50;;
12151;SDS011;6139;51.274;7.128;2023-10-19T05:57:17;4.05;;;3.08;;
12151;SDS011;6139;51.274;7.128;2023-10-19T05:58:18;3.88;;;3.17;;
12151;SDS011;6139;51.274;7.128;2023-10-19T05:59:21;4.80;;;3.20;;
12151;SDS011;6139;51.274;7.128;2023-10-19T06:00:24;4.28;;;3.17;;
12151;SDS011;6139;51.274;7.128;2023-10-19T06:01:26;4.88;;;3.05;;
12151;SDS011;6139;51.274;7.128;2023-10-19T06:02:29;4.47;;;3.22;;
12151;SDS011;6139;51.274;7.128;2023-10-19T06:03:31;4.70;;;3.15;;
12151;SDS011;6139;51.274;7.128;2023-10-19T06:04:32;5.75;;;3.33;;
12151;SDS011;6139;51.274;7.128;2023-10-19T06:05:34;5.28;;;3.17;;
12151;SDS011;6139;51.274;7.128;2023-10-19T06:06:35;4.38;;;3.35;;
12151;SDS011;6139;51.274;7.128;2023-10-19T06:07:37;4.72;;;2.83;;
12151;SDS011;6139;51.274;7.128;2023-10-19T06:08:39;5.97;;;3.13;;
12151;SDS011;6139;51.274;7.128;2023-10-19T06:09:42;3.67;;;2.90;;
12151;SDS011;6139;51.274;7.128;2023-10-19T06:10:43;3.75;;;2.67;;
12151;SDS011;6139;51.274;7.128;2023-10-19T06:11:51;4.15;;;3.17;;
12151;SDS011;6139;51.274;7.128;2023-10-19T06:12:54;4.28;;;2.88;;
12151;SDS011;6139;51.274;7.128;2023-10-19T06:13:58;3.22;;;2.92;;
12151;SDS011;6139;51.274;7.128;2023-10-19T06:15:00;4.25;;;2.85;;
12151;SDS011;6139;51.274;7.128;2023-10-19T06:16:01;4.63;;;2.92;;
12151;SDS011;6139;51.274;7.128;2023-10-19T06:17:04;3.33;;;3.00;;
12151;SDS011;6139;51.274;7.128;2023-10-19T06:18:06;2.90;;;2.58;;
12151;SDS011;6139;51.274;7.128;2023-10-19T06:19:08;3.47;;;3.10;;
12151;SDS011;6139;51.274;7.128;2023-10-19T06:20:10;3.33;;;2.47;;
12151;SDS011;6139;51.274;7.128;2023-10-19T06:21:20;3.60;;;2.78;;
12151;SDS011;6139;51.274;7.128;2023-10-19T06:22:21;4.95;;;2.75;;
12151;SDS011;6139;51.274;7.128;2023-10-19T06:23:24;3.35;;;3.00;;
12151;SDS011;6139;51.274;7.128;2023-10-19T06:24:25;5.65;;;3.13;;
12151;SDS011;6139;51.274;7.128;2023-10-19T06:25:27;3.72;;;2.67;;
12151;SDS011;6139;51.274;7.128;2023-10-19T06:26:31;3.45;;;2.60;;
12151;SDS011;6139;51.274;7.128;2023-10-19T06:27:33;3.72;;;2.97;;
12151;SDS011;6139;51.274;7.128;2023-10-19T06:28:35;5.18;;;3.05;;
12151;SDS011;6139;51.274;7.128;2023-10-19T06:29:39;3.25;;;2.70;;